createdAt,value
2022-11-05T00:00:32.792Z,10.00
2022-11-05T00:03:53.308Z,10.00
2022-11-05T00:07:16.452Z,10.00
2022-11-05T00:10:22.208Z,9.90
2022-11-05T00:13:44.175Z,9.90
2022-11-05T00:16:47.015Z,9.90
2022-11-05T00:19:49.841Z,9.90
2022-11-05T00:23:21.206Z,9.90
2022-11-05T00:26:26.380Z,9.90
2022-11-05T00:29:30.537Z,9.90
2022-11-05T00:32:33.630Z,9.90
2022-11-05T00:35:37.906Z,9.90
2022-11-05T00:38:41.767Z,10.20
2022-11-05T00:42:05.663Z,9.90
2022-11-05T00:45:10.257Z,9.90
2022-11-05T00:48:30.541Z,9.90
2022-11-05T00:51:34.858Z,9.90
2022-11-05T00:54:37.624Z,9.90
2022-11-05T00:57:40.632Z,9.80
2022-11-05T01:00:46.563Z,9.80
2022-11-05T01:03:55.773Z,9.80
2022-11-05T01:06:58.519Z,9.90
2022-11-05T01:10:02.717Z,9.90
2022-11-05T01:13:08.841Z,9.90
2022-11-05T01:16:19.802Z,9.90
2022-11-05T01:19:24.354Z,9.90
2022-11-05T01:22:27.192Z,9.90
2022-11-05T01:25:36.260Z,9.90
2022-11-05T01:28:41.969Z,9.90
2022-11-05T01:31:46.728Z,9.90
2022-11-05T01:34:49.546Z,9.90
2022-11-05T01:37:52.339Z,9.90
2022-11-05T01:40:55.317Z,9.90
2022-11-05T01:44:00.142Z,9.80
2022-11-05T01:47:04.247Z,9.80
2022-11-05T01:50:21.090Z,9.80
2022-11-05T01:53:30.099Z,9.80
2022-11-05T01:56:37.085Z,9.80
2022-11-05T01:59:44.125Z,9.80
2022-11-05T02:02:48.633Z,9.80
2022-11-05T02:05:53.843Z,9.70
2022-11-05T02:09:03.309Z,9.70
2022-11-05T02:12:13.868Z,9.70
2022-11-05T02:15:20.764Z,9.70
2022-11-05T02:18:37.635Z,9.70
2022-11-05T02:22:08.969Z,9.60
2022-11-05T02:25:35.235Z,9.60
2022-11-05T02:29:12.584Z,9.60
2022-11-05T02:32:24.816Z,9.60
2022-11-05T02:35:39.707Z,9.50
2022-11-05T02:38:52.140Z,9.60
2022-11-05T02:42:08.708Z,9.50
2022-11-05T02:45:26.174Z,9.40
2022-11-05T02:48:38.225Z,9.40
2022-11-05T02:51:48.951Z,9.40
2022-11-05T02:54:59.619Z,9.40
2022-11-05T02:58:04.504Z,9.30
2022-11-05T03:01:07.588Z,9.30
2022-11-05T03:04:15.142Z,9.30
2022-11-05T03:07:39.120Z,9.20
2022-11-05T03:10:46.333Z,9.20
2022-11-05T03:14:05.842Z,9.20
2022-11-05T03:17:17.804Z,9.10
2022-11-05T03:20:25.027Z,9.20
2022-11-05T03:23:32.149Z,9.10
2022-11-05T03:26:40.933Z,9.10
2022-11-05T03:29:47.293Z,9.10
2022-11-05T03:32:55.611Z,9.20
2022-11-05T03:36:02.565Z,9.10
2022-11-05T03:39:09.839Z,9.00
2022-11-05T03:42:16.523Z,9.00
2022-11-05T03:45:24.600Z,9.00
2022-11-05T03:48:30.492Z,9.00
2022-11-05T03:51:42.902Z,9.00
2022-11-05T03:54:46.410Z,9.00
2022-11-05T03:58:00.334Z,9.00
2022-11-05T04:01:05.307Z,9.00
2022-11-05T04:04:08.855Z,9.00
2022-11-05T04:07:31.576Z,9.00
2022-11-05T04:11:00.036Z,9.00
2022-11-05T04:14:02.864Z,8.90
2022-11-05T04:17:10.151Z,9.00
2022-11-05T04:20:30.455Z,8.90
2022-11-05T04:23:52.361Z,9.10
2022-11-05T04:26:55.190Z,8.80
2022-11-05T04:30:15.758Z,8.80
2022-11-05T04:33:28.533Z,8.80
2022-11-05T04:36:31.651Z,8.70
2022-11-05T04:39:35.751Z,8.70
2022-11-05T04:42:38.530Z,8.70
2022-11-05T04:45:41.620Z,8.70
2022-11-05T04:48:44.387Z,8.70
2022-11-05T04:51:47.173Z,8.70
2022-11-05T04:54:51.298Z,8.70
2022-11-05T04:57:55.563Z,8.70
2022-11-05T05:00:58.443Z,8.70
2022-11-05T05:04:01.322Z,8.70
2022-11-05T05:07:04.170Z,8.70
2022-11-05T05:10:10.182Z,8.60
2022-11-05T05:13:13.478Z,8.60
2022-11-05T05:16:20.923Z,8.60
2022-11-05T05:19:25.276Z,8.60
2022-11-05T05:22:27.308Z,8.60
2022-11-05T05:25:31.829Z,8.50
2022-11-05T05:28:34.682Z,8.50
2022-11-05T05:31:37.682Z,8.60
2022-11-05T05:34:40.454Z,8.70
2022-11-05T05:37:44.785Z,8.50
2022-11-05T05:40:50.039Z,8.40
2022-11-05T05:43:52.828Z,8.40
2022-11-05T05:46:56.817Z,8.40
2022-11-05T05:49:59.767Z,8.30
2022-11-05T05:53:02.622Z,8.40
2022-11-05T05:56:07.749Z,8.30
2022-11-05T05:59:10.613Z,8.10
2022-11-05T06:02:13.720Z,8.30
2022-11-05T06:05:16.826Z,8.30
2022-11-05T06:08:19.637Z,8.20
2022-11-05T06:11:23.846Z,8.20
2022-11-05T06:14:26.641Z,8.20
2022-11-05T06:17:29.487Z,8.30
2022-11-05T06:20:32.284Z,8.10
2022-11-05T06:23:36.867Z,8.20
2022-11-05T06:26:45.574Z,8.20
2022-11-05T06:29:48.377Z,8.30
2022-11-05T06:32:51.514Z,8.20
2022-11-05T06:35:55.130Z,8.40
2022-11-05T06:38:57.976Z,8.20
2022-11-05T06:42:17.989Z,8.20
2022-11-05T06:45:23.985Z,8.20
2022-11-05T06:48:26.784Z,8.20
2022-11-05T06:51:30.240Z,8.20
2022-11-05T06:54:33.089Z,8.20
2022-11-05T06:57:38.589Z,8.30
2022-11-05T07:00:41.811Z,8.20
2022-11-05T07:03:48.839Z,8.20
2022-11-05T07:06:51.648Z,8.20
2022-11-05T07:09:54.494Z,8.20
2022-11-05T07:13:02.378Z,8.20
2022-11-05T07:16:09.552Z,8.20
2022-11-05T07:19:13.545Z,8.20
2022-11-05T07:22:16.581Z,8.40
2022-11-05T07:25:19.434Z,8.20
2022-11-05T07:28:23.585Z,8.10
2022-11-05T07:31:26.437Z,8.10
2022-11-05T07:34:29.213Z,8.20
2022-11-05T07:37:44.842Z,8.10
2022-11-05T07:40:47.625Z,8.20
2022-11-05T07:44:00.807Z,8.20
2022-11-05T07:47:03.585Z,8.40
2022-11-05T07:50:09.852Z,8.10
2022-11-05T07:53:14.503Z,8.20
2022-11-05T07:56:17.951Z,8.20
2022-11-05T07:59:22.887Z,8.20
2022-11-05T08:02:25.873Z,8.20
2022-11-05T08:05:29.479Z,8.30
2022-11-05T08:08:32.718Z,8.40
2022-11-05T08:11:36.008Z,8.40
2022-11-05T08:14:40.156Z,8.40
2022-11-05T08:17:43.402Z,8.40
2022-11-05T08:20:47.903Z,8.40
2022-11-05T08:23:50.684Z,8.40
2022-11-05T08:26:54.518Z,8.40
2022-11-05T08:29:58.657Z,8.40
2022-11-05T08:33:03.405Z,8.40
2022-11-05T08:36:07.098Z,8.40
2022-11-05T08:39:15.842Z,8.40
2022-11-05T08:42:31.877Z,8.40
2022-11-05T08:45:38.930Z,8.40
2022-11-05T08:48:42.935Z,8.60
2022-11-05T08:51:46.007Z,8.50
2022-11-05T08:54:48.772Z,8.70
2022-11-05T08:57:57.496Z,8.80
2022-11-05T09:01:05.022Z,9.10
2022-11-05T09:04:09.832Z,9.10
2022-11-05T09:07:12.595Z,9.30
2022-11-05T09:10:15.527Z,9.40
2022-11-05T09:13:20.209Z,9.60
2022-11-05T09:16:26.370Z,9.70
2022-11-05T09:19:29.115Z,9.80
2022-11-05T09:22:32.227Z,9.90
2022-11-05T09:25:35.232Z,10.00
2022-11-05T09:28:38.770Z,10.10
2022-11-05T09:31:43.421Z,10.20
2022-11-05T09:34:48.471Z,10.40
2022-11-05T09:37:51.247Z,10.50
2022-11-05T09:40:58.300Z,10.60
2022-11-05T09:44:06.326Z,10.80
2022-11-05T09:47:17.914Z,10.90
2022-11-05T09:50:25.689Z,11.00
2022-11-05T09:53:29.113Z,11.00
2022-11-05T09:56:36.918Z,11.10
2022-11-05T09:59:44.991Z,11.20
2022-11-05T10:02:51.918Z,11.20
2022-11-05T10:06:10.657Z,11.30
2022-11-05T10:09:19.908Z,11.40
2022-11-05T10:12:29.624Z,11.40
2022-11-05T10:15:37.068Z,11.50
2022-11-05T10:18:43.820Z,11.70
2022-11-05T10:25:18.613Z,11.80
2022-11-05T10:28:24.394Z,12.00
2022-11-05T10:31:35.305Z,12.10
2022-11-05T10:34:40.566Z,12.20
2022-11-05T10:37:50.454Z,12.30
2022-11-05T10:41:06.421Z,12.40
2022-11-05T10:44:26.964Z,12.40
2022-11-05T10:47:46.914Z,12.40
2022-11-05T10:50:51.031Z,12.50
2022-11-05T10:54:01.647Z,12.50
2022-11-05T10:57:28.617Z,12.60
2022-11-05T11:00:31.859Z,12.70
2022-11-05T11:03:49.501Z,12.80
2022-11-05T11:06:56.151Z,13.00
2022-11-05T11:09:59.030Z,13.00
2022-11-05T11:13:01.893Z,13.20
2022-11-05T11:16:16.219Z,13.20
2022-11-05T11:19:35.897Z,13.30
2022-11-05T11:22:40.113Z,13.30
2022-11-05T11:25:51.435Z,13.30
2022-11-05T11:28:58.919Z,13.30
2022-11-05T11:32:01.736Z,13.40
2022-11-05T11:35:06.533Z,13.40
2022-11-05T11:38:15.939Z,13.40
2022-11-05T11:41:26.510Z,13.40
2022-11-05T11:44:43.417Z,13.50
2022-11-05T11:47:48.051Z,13.50
2022-11-05T11:50:51.767Z,13.50
2022-11-05T11:54:02.064Z,13.50
2022-11-05T11:57:20.303Z,13.50
2022-11-05T12:00:26.848Z,13.50
2022-11-05T12:03:36.485Z,13.60
2022-11-05T12:06:48.030Z,13.60
2022-11-05T12:10:02.936Z,13.70
2022-11-05T12:13:40.931Z,13.80
2022-11-05T12:17:09.325Z,14.00
2022-11-05T12:20:31.586Z,13.90
2022-11-05T12:24:11.541Z,13.70
2022-11-05T12:27:28.975Z,13.70
2022-11-05T12:30:38.983Z,13.60
2022-11-05T12:33:55.072Z,13.50
2022-11-05T12:37:16.947Z,13.40
2022-11-05T12:40:35.004Z,13.30
2022-11-05T12:43:48.959Z,13.20
2022-11-05T12:47:07.361Z,12.90
2022-11-05T12:50:32.259Z,12.80
2022-11-05T12:53:49.486Z,12.80
2022-11-05T12:56:56.583Z,12.90
2022-11-05T13:00:16.419Z,12.90
2022-11-05T13:03:31.987Z,12.90
2022-11-05T13:06:40.346Z,12.90
2022-11-05T13:09:49.239Z,13.00
2022-11-05T13:13:00.011Z,12.90
2022-11-05T13:16:11.049Z,13.00
2022-11-05T13:19:20.342Z,13.00
2022-11-05T13:22:30.844Z,13.00
2022-11-05T13:25:38.509Z,12.90
2022-11-05T13:28:52.015Z,12.80
2022-11-05T13:32:03.830Z,12.80
2022-11-05T13:35:14.988Z,12.70
2022-11-05T13:38:46.009Z,12.70
2022-11-05T13:42:05.690Z,12.70
2022-11-05T13:45:48.580Z,12.70
2022-11-05T13:49:08.475Z,12.70
2022-11-05T13:52:30.614Z,12.70
2022-11-05T13:55:57.187Z,12.70
2022-11-05T13:59:45.465Z,12.70
2022-11-05T14:02:52.026Z,12.70
2022-11-05T14:06:04.949Z,12.70
2022-11-05T14:09:11.306Z,12.70
2022-11-05T14:12:26.733Z,12.70
2022-11-05T14:15:32.343Z,12.70
2022-11-05T14:18:41.301Z,12.60
2022-11-05T14:21:54.320Z,12.60
2022-11-05T14:24:57.161Z,12.50
2022-11-05T14:28:01.029Z,12.50
2022-11-05T14:31:05.275Z,12.40
2022-11-05T14:34:23.792Z,12.40
2022-11-05T14:37:41.469Z,12.30
2022-11-05T14:40:46.010Z,12.30
2022-11-05T14:43:59.534Z,12.10
2022-11-05T14:47:05.660Z,12.00
2022-11-05T14:50:12.444Z,12.00
2022-11-05T14:53:31.596Z,11.90
2022-11-05T14:56:44.365Z,11.80
2022-11-05T14:59:57.057Z,11.70
2022-11-05T15:03:01.491Z,11.70
2022-11-05T15:06:22.557Z,11.60
2022-11-05T15:09:33.591Z,11.60
2022-11-05T15:12:41.083Z,11.50
2022-11-05T15:15:49.028Z,11.40
2022-11-05T15:18:53.867Z,11.30
2022-11-05T15:21:59.209Z,11.30
2022-11-05T15:25:05.336Z,11.20
2022-11-05T15:28:16.575Z,11.10
2022-11-05T15:31:29.975Z,11.10
2022-11-05T15:34:35.493Z,11.00
2022-11-05T15:37:38.267Z,10.90
2022-11-05T15:40:45.255Z,10.90
2022-11-05T15:43:49.514Z,10.80
2022-11-05T15:47:13.331Z,10.80
2022-11-05T15:50:17.116Z,10.80
2022-11-05T15:54:28.381Z,10.80
2022-11-05T15:57:24.498Z,10.70
2022-11-05T16:00:28.674Z,10.60
2022-11-05T16:03:34.352Z,10.50
2022-11-05T16:06:40.005Z,10.40
2022-11-05T16:09:54.875Z,10.40
2022-11-05T16:13:19.776Z,10.30
2022-11-05T16:16:34.981Z,10.30
2022-11-05T16:19:41.913Z,10.20
2022-11-05T16:22:49.582Z,10.10
2022-11-05T16:25:52.608Z,10.10
2022-11-05T16:28:57.211Z,10.00
2022-11-05T16:32:02.304Z,10.00
2022-11-05T16:35:08.214Z,9.90
2022-11-05T16:38:13.745Z,9.80
2022-11-05T16:41:18.756Z,9.80
2022-11-05T16:44:23.358Z,9.70
2022-11-05T16:47:26.755Z,9.70
2022-11-05T16:50:32.811Z,9.60
2022-11-05T16:53:35.669Z,9.50
2022-11-05T16:56:39.860Z,9.50
2022-11-05T16:59:44.026Z,9.40
2022-11-05T17:02:47.618Z,9.40
2022-11-05T17:05:50.465Z,9.40
2022-11-05T17:08:53.556Z,9.40
2022-11-05T17:11:56.292Z,9.40
2022-11-05T17:15:00.486Z,9.40
2022-11-05T17:18:05.625Z,9.40
2022-11-05T17:21:09.827Z,9.40
2022-11-05T17:24:12.708Z,9.40
2022-11-05T17:27:16.537Z,9.30
2022-11-05T17:30:21.152Z,9.30
2022-11-05T17:33:25.231Z,9.30
2022-11-05T17:36:29.195Z,9.30
2022-11-05T17:39:33.478Z,9.30
2022-11-05T17:42:36.301Z,9.20
2022-11-05T17:45:44.962Z,9.30
2022-11-05T17:48:47.784Z,9.30
2022-11-05T17:51:50.563Z,9.30
2022-11-05T17:54:53.370Z,9.30
2022-11-05T17:57:56.157Z,9.30
2022-11-05T18:01:02.796Z,9.30
2022-11-05T18:04:08.948Z,9.30
2022-11-05T18:07:12.108Z,9.30
2022-11-05T18:10:15.348Z,9.20
2022-11-05T18:13:18.170Z,9.20
2022-11-05T18:16:22.325Z,9.20
2022-11-05T18:19:25.118Z,9.10
2022-11-05T18:22:27.984Z,9.10
2022-11-05T18:25:34.001Z,9.10
2022-11-05T18:28:37.870Z,9.00
2022-11-05T18:31:45.740Z,9.00
2022-11-05T18:34:48.649Z,9.00
2022-11-05T18:37:51.433Z,9.00
2022-11-05T18:41:05.773Z,8.90
2022-11-05T18:44:08.502Z,8.90
2022-11-05T18:47:13.192Z,8.80
2022-11-05T18:50:16.212Z,8.70
2022-11-05T18:53:19.579Z,8.70
2022-11-05T18:56:22.842Z,8.50
2022-11-05T18:59:40.921Z,8.60
2022-11-05T19:02:45.264Z,8.60
2022-11-05T19:05:49.432Z,8.50
2022-11-05T19:08:52.543Z,8.50
2022-11-05T19:11:57.531Z,8.50
2022-11-05T19:15:02.806Z,8.50
2022-11-05T19:18:07.365Z,8.40
2022-11-05T19:21:11.622Z,8.40
2022-11-05T19:24:17.468Z,8.40
2022-11-05T19:27:20.428Z,8.30
2022-11-05T19:30:23.161Z,8.30
2022-11-05T19:33:27.607Z,8.30
2022-11-05T19:36:30.640Z,8.30
2022-11-05T19:39:33.815Z,8.20
2022-11-05T19:42:38.650Z,8.20
2022-11-05T19:45:45.034Z,8.10
2022-11-05T19:48:50.033Z,8.10
2022-11-05T19:51:56.251Z,8.00
2022-11-05T19:54:59.082Z,8.00
2022-11-05T19:58:01.853Z,8.10
2022-11-05T20:01:05.075Z,8.00
2022-11-05T20:04:11.850Z,7.80
2022-11-05T20:07:14.775Z,8.00
2022-11-05T20:10:17.710Z,7.70
2022-11-05T20:13:21.240Z,7.70
2022-11-05T20:16:26.189Z,7.70
2022-11-05T20:19:31.486Z,7.70
2022-11-05T20:22:34.404Z,7.70
2022-11-05T20:25:38.703Z,7.60
2022-11-05T20:28:42.842Z,7.70
2022-11-05T20:31:46.202Z,7.50
2022-11-05T20:34:50.485Z,7.50
2022-11-05T20:37:54.421Z,7.50
2022-11-05T20:40:57.629Z,7.30
2022-11-05T20:44:00.465Z,7.40
2022-11-05T20:47:03.367Z,7.40
2022-11-05T20:50:09.413Z,7.50
2022-11-05T20:53:13.620Z,7.50
2022-11-05T20:56:17.705Z,7.50
2022-11-05T20:59:20.588Z,7.20
2022-11-05T21:02:23.360Z,7.40
2022-11-05T21:05:32.725Z,7.30
2022-11-05T21:08:38.609Z,7.30
2022-11-05T21:11:58.807Z,7.10
2022-11-05T21:15:01.585Z,7.30
2022-11-05T21:18:07.265Z,7.40
2022-11-05T21:21:13.762Z,7.00
2022-11-05T21:24:27.036Z,7.00
2022-11-05T21:27:29.804Z,7.10
2022-11-05T21:30:32.612Z,7.10
2022-11-05T21:33:36.249Z,7.10
2022-11-05T21:36:41.116Z,7.00
2022-11-05T21:39:44.023Z,7.00
2022-11-05T21:42:46.824Z,7.10
2022-11-05T21:45:49.586Z,6.90
2022-11-05T21:48:52.394Z,7.10
2022-11-05T21:52:14.980Z,7.20
2022-11-05T21:55:35.376Z,7.00
2022-11-05T21:58:55.723Z,6.90
2022-11-05T22:02:02.393Z,7.10
2022-11-05T22:05:07.130Z,6.80
2022-11-05T22:08:11.685Z,6.80
2022-11-05T22:11:14.593Z,6.90
2022-11-05T22:14:17.471Z,6.80
2022-11-05T22:17:20.640Z,6.60
2022-11-05T22:20:23.460Z,7.00
2022-11-05T22:23:27.685Z,6.90
2022-11-05T22:26:30.560Z,6.90
2022-11-05T22:29:33.329Z,6.90
2022-11-05T22:32:36.459Z,6.80
2022-11-05T22:35:40.435Z,6.80
2022-11-05T22:38:44.576Z,6.50
2022-11-05T22:41:47.470Z,6.60
2022-11-05T22:44:50.274Z,6.50
2022-11-05T22:47:53.062Z,6.70
2022-11-05T22:50:55.813Z,6.60
2022-11-05T22:54:00.785Z,6.80
2022-11-05T22:57:03.576Z,6.80
2022-11-05T23:00:13.211Z,6.70
2022-11-05T23:03:16.032Z,6.60
2022-11-05T23:06:38.580Z,6.80
2022-11-05T23:10:01.173Z,6.80
2022-11-05T23:13:05.381Z,6.60
2022-11-05T23:16:26.339Z,6.90
2022-11-05T23:19:43.421Z,6.90
2022-11-05T23:23:03.788Z,6.70
2022-11-05T23:26:28.090Z,6.70
2022-11-05T23:29:31.003Z,6.70
2022-11-05T23:32:33.987Z,6.80
2022-11-05T23:35:54.265Z,6.60
2022-11-05T23:38:57.025Z,6.40
2022-11-05T23:42:18.816Z,6.60
2022-11-05T23:45:42.945Z,6.70
2022-11-05T23:48:45.840Z,6.70
2022-11-05T23:51:49.385Z,6.60
2022-11-05T23:54:52.180Z,6.60
2022-11-05T23:57:56.352Z,6.50
